createdAt,value
2018-12-14T00:01:47.241Z,47.43
2018-12-14T00:04:17.424Z,44.88
2018-12-14T00:06:46.420Z,47.43
2018-12-14T00:09:19.051Z,48.80
2018-12-14T00:11:48.135Z,51.23
2018-12-14T00:14:17.493Z,53.13
2018-12-14T00:16:46.583Z,57.00
2018-12-14T00:24:16.075Z,53.47
2018-12-14T00:26:45.679Z,52.17
2018-12-14T00:34:13.351Z,55.67
2018-12-14T00:36:43.457Z,56.77
2018-12-14T00:39:11.944Z,50.10
2018-12-14T00:41:40.539Z,54.00
2018-12-14T00:44:09.025Z,52.70
2018-12-14T00:46:41.800Z,58.25
2018-12-14T00:49:10.896Z,43.28
2018-12-14T00:51:40.261Z,49.03
2018-12-14T00:54:10.112Z,52.77
2018-12-14T00:56:40.004Z,50.77
2018-12-14T00:59:08.811Z,55.03
2018-12-14T01:01:37.552Z,56.95
2018-12-14T01:04:06.107Z,57.13
2018-12-14T01:06:34.593Z,52.65
2018-12-14T01:09:05.141Z,51.33
2018-12-14T01:11:33.736Z,43.13
2018-12-14T01:14:02.516Z,56.70
2018-12-14T01:16:32.047Z,50.30
2018-12-14T01:19:00.547Z,53.95
2018-12-14T01:21:30.163Z,50.98
2018-12-14T01:23:59.624Z,52.90
2018-12-14T01:26:28.912Z,59.80
2018-12-14T01:28:57.487Z,51.75
2018-12-14T01:31:26.207Z,52.47
2018-12-14T01:33:54.936Z,58.27
2018-12-14T01:36:24.122Z,54.70
2018-12-14T01:38:53.071Z,60.80
2018-12-14T01:41:21.556Z,50.93
2018-12-14T01:43:50.040Z,49.17
2018-12-14T01:46:18.552Z,46.80
2018-12-14T01:48:47.204Z,52.00
2018-12-14T01:51:18.175Z,39.80
2018-12-14T01:53:46.833Z,43.67
2018-12-14T02:01:16.873Z,49.10
2018-12-14T02:03:45.504Z,45.78
2018-12-14T02:06:15.944Z,48.70
2018-12-14T02:08:44.559Z,43.38
2018-12-14T02:11:13.059Z,43.47
2018-12-14T02:13:42.082Z,48.17
2018-12-14T02:16:10.777Z,47.03
2018-12-14T02:18:39.256Z,47.50
2018-12-14T02:21:08.140Z,50.77
2018-12-14T02:23:37.859Z,48.73
2018-12-14T02:26:06.341Z,39.43
2018-12-14T02:28:35.665Z,48.23
2018-12-14T02:31:04.358Z,46.90
2018-12-14T02:33:32.844Z,43.03
2018-12-14T02:36:01.458Z,43.07
2018-12-14T02:38:30.208Z,42.97
2018-12-14T02:40:58.849Z,44.13
2018-12-14T02:43:27.556Z,39.93
2018-12-14T02:45:56.575Z,47.00
2018-12-14T02:48:25.234Z,47.83
2018-12-14T02:50:54.771Z,46.00
2018-12-14T02:53:23.272Z,46.17
2018-12-14T02:55:51.784Z,40.03
2018-12-14T02:58:21.584Z,41.08
2018-12-14T03:00:50.259Z,40.50
2018-12-14T03:03:18.721Z,42.43
2018-12-14T03:05:47.239Z,43.73
2018-12-14T03:08:18.659Z,47.40
2018-12-14T03:10:47.272Z,49.83
2018-12-14T03:18:15.507Z,40.48
2018-12-14T03:20:44.059Z,44.27
2018-12-14T03:23:12.571Z,42.10
2018-12-14T03:25:41.476Z,39.90
2018-12-14T03:28:09.977Z,38.97
2018-12-14T03:30:38.691Z,45.20
2018-12-14T03:33:07.441Z,46.70
2018-12-14T03:35:36.431Z,40.97
2018-12-14T03:38:04.926Z,42.80
2018-12-14T03:40:34.040Z,44.42
2018-12-14T03:43:02.577Z,41.77
2018-12-14T03:45:31.176Z,45.63
2018-12-14T03:48:06.116Z,42.50
2018-12-14T03:50:34.607Z,42.13
2018-12-14T03:53:03.151Z,42.87
2018-12-14T03:55:31.724Z,42.55
2018-12-14T03:58:00.645Z,43.27
2018-12-14T04:00:29.604Z,43.60
2018-12-14T04:02:58.696Z,42.10
2018-12-14T04:05:27.704Z,40.40
2018-12-14T04:07:56.237Z,46.30
2018-12-14T04:10:25.123Z,42.90
2018-12-14T04:12:54.033Z,49.30
2018-12-14T04:15:24.251Z,49.40
2018-12-14T04:17:52.774Z,46.80
2018-12-14T04:20:21.277Z,46.67
2018-12-14T04:22:49.924Z,45.63
2018-12-14T04:25:19.288Z,44.20
2018-12-14T04:27:48.056Z,44.37
2018-12-14T04:30:17.573Z,43.10
2018-12-14T04:32:47.310Z,39.30
2018-12-14T04:35:17.916Z,42.67
2018-12-14T04:37:47.858Z,44.17
2018-12-14T04:40:18.625Z,47.75
2018-12-14T04:42:48.941Z,50.40
2018-12-14T04:45:17.834Z,43.80
2018-12-14T04:47:46.378Z,40.53
2018-12-14T04:55:16.720Z,48.50
2018-12-14T04:57:45.542Z,40.73
2018-12-14T05:05:14.454Z,44.42
2018-12-14T05:07:44.628Z,46.80
2018-12-14T05:10:13.290Z,43.40
2018-12-14T05:12:42.323Z,46.37
2018-12-14T05:15:10.996Z,39.67
2018-12-14T05:17:39.662Z,35.50
2018-12-14T05:20:08.423Z,40.10
2018-12-14T05:22:36.998Z,40.00
2018-12-14T05:30:06.844Z,39.73
2018-12-14T05:32:35.673Z,39.90
2018-12-14T05:35:05.587Z,39.10
2018-12-14T05:37:34.510Z,41.02
2018-12-14T05:40:03.858Z,37.07
2018-12-14T05:42:34.559Z,41.00
2018-12-14T05:45:03.076Z,40.40
2018-12-14T05:47:31.660Z,36.68
2018-12-14T05:50:01.523Z,32.43
2018-12-14T05:52:30.297Z,48.67
2018-12-14T05:54:58.803Z,40.03
2018-12-14T05:57:27.420Z,34.73
2018-12-14T05:59:56.579Z,37.67
2018-12-14T06:02:25.815Z,40.00
2018-12-14T06:04:54.320Z,40.63
2018-12-14T06:07:23.952Z,37.80
2018-12-14T06:09:53.067Z,36.28
2018-12-14T06:12:26.269Z,38.00
2018-12-14T06:14:54.827Z,37.63
2018-12-14T06:17:23.796Z,44.13
2018-12-14T06:19:54.151Z,39.90
2018-12-14T06:22:23.239Z,41.92
2018-12-14T06:24:51.939Z,43.20
2018-12-14T06:27:20.468Z,42.50
2018-12-14T06:29:49.191Z,48.07
2018-12-14T06:32:19.932Z,42.50
2018-12-14T06:34:50.385Z,38.25
2018-12-14T06:37:20.016Z,38.23
2018-12-14T06:39:48.522Z,38.55
2018-12-14T06:42:18.462Z,40.92
2018-12-14T06:44:46.975Z,40.60
2018-12-14T06:50:43.316Z,44.10
2018-12-14T06:53:12.132Z,41.00
2018-12-14T06:55:41.827Z,39.20
2018-12-14T06:58:11.194Z,48.73
2018-12-14T07:00:40.320Z,42.07
2018-12-14T07:03:08.812Z,43.00
2018-12-14T07:05:38.160Z,43.33
2018-12-14T07:08:06.665Z,40.97
2018-12-14T07:10:35.152Z,40.27
2018-12-14T07:13:05.422Z,39.23
2018-12-14T07:15:34.074Z,42.35
2018-12-14T07:18:02.598Z,45.83
2018-12-14T07:20:33.129Z,41.08
2018-12-14T07:23:01.741Z,38.93
2018-12-14T07:25:31.031Z,45.98
2018-12-14T07:27:59.639Z,40.30
2018-12-14T07:30:28.641Z,41.90
2018-12-14T07:32:57.308Z,39.57
2018-12-14T07:35:26.225Z,37.87
2018-12-14T07:37:55.897Z,31.83
2018-12-14T07:40:24.577Z,33.05
2018-12-14T07:42:53.421Z,39.70
2018-12-14T07:45:21.892Z,38.90
2018-12-14T07:47:51.880Z,40.50
2018-12-14T07:50:22.224Z,41.93
2018-12-14T07:52:51.319Z,39.43
2018-12-14T07:55:20.807Z,39.90
2018-12-14T07:57:50.659Z,41.63
2018-12-14T08:00:19.215Z,40.17
2018-12-14T08:02:49.844Z,45.23
2018-12-14T08:05:19.212Z,41.13
2018-12-14T08:07:48.715Z,38.87
2018-12-14T08:10:18.135Z,38.98
2018-12-14T08:12:47.583Z,36.43
2018-12-14T08:15:18.391Z,36.95
2018-12-14T08:17:47.007Z,39.43
2018-12-14T08:25:17.684Z,38.03
2018-12-14T08:27:47.029Z,39.10
2018-12-14T08:35:19.110Z,36.53
2018-12-14T08:37:48.556Z,45.10
2018-12-14T08:40:19.747Z,42.30
2018-12-14T08:42:48.264Z,42.50
2018-12-14T08:45:18.389Z,43.46
2018-12-14T08:47:47.027Z,40.93
2018-12-14T08:55:15.220Z,39.80
2018-12-14T08:57:43.890Z,42.80
2018-12-14T09:00:13.553Z,38.10
2018-12-14T09:02:42.691Z,45.20
2018-12-14T09:05:12.036Z,41.40
2018-12-14T09:07:40.680Z,43.60
2018-12-14T09:10:09.653Z,45.63
2018-12-14T09:12:38.658Z,39.37
2018-12-14T09:15:07.432Z,40.87
2018-12-14T09:17:36.142Z,38.57
2018-12-14T09:20:05.713Z,35.37
2018-12-14T09:22:36.514Z,32.05
2018-12-14T09:25:05.221Z,42.70
2018-12-14T09:27:34.404Z,36.35
2018-12-14T09:30:03.263Z,40.97
2018-12-14T09:32:32.897Z,37.30
2018-12-14T09:35:02.153Z,37.30
2018-12-14T09:37:33.317Z,37.60
2018-12-14T09:40:02.059Z,42.80
2018-12-14T09:42:30.948Z,39.67
2018-12-14T09:44:59.461Z,34.00
2018-12-14T09:47:28.895Z,45.53
2018-12-14T09:49:58.149Z,37.10
2018-12-14T09:52:26.870Z,38.00
2018-12-14T09:54:56.216Z,35.98
2018-12-14T09:57:24.816Z,37.53
2018-12-14T09:59:54.098Z,41.30
2018-12-14T10:02:24.480Z,38.17
2018-12-14T10:04:52.970Z,41.93
2018-12-14T10:07:22.348Z,38.60
2018-12-14T10:09:52.558Z,35.20
2018-12-14T10:12:21.090Z,38.73
2018-12-14T10:14:50.940Z,38.97
2018-12-14T10:17:19.413Z,39.18
2018-12-14T10:19:48.804Z,38.30
2018-12-14T10:22:17.753Z,35.75
2018-12-14T10:24:46.282Z,38.70
2018-12-14T10:32:16.996Z,35.23
2018-12-14T10:34:45.547Z,35.78
2018-12-14T10:42:15.965Z,37.50
2018-12-14T10:44:45.519Z,45.20
2018-12-14T10:52:15.143Z,35.30
2018-12-14T10:54:44.039Z,34.00
2018-12-14T10:57:16.153Z,35.90
2018-12-14T10:59:43.666Z,32.17
2018-12-14T11:02:12.277Z,35.63
2018-12-14T11:04:41.026Z,40.00
2018-12-14T11:07:10.018Z,36.65
2018-12-14T11:09:38.488Z,40.33
2018-12-14T11:12:07.279Z,36.70
2018-12-14T11:14:35.944Z,40.60
2018-12-14T11:17:04.485Z,36.80
2018-12-14T11:19:32.966Z,41.30
2018-12-14T11:22:03.063Z,35.73
2018-12-14T11:24:31.531Z,38.90
2018-12-14T11:27:00.785Z,35.00
2018-12-14T11:29:30.297Z,35.58
2018-12-14T11:31:59.028Z,32.97
2018-12-14T11:34:29.908Z,35.50
2018-12-14T11:36:58.048Z,36.20
2018-12-14T11:39:29.015Z,33.77
2018-12-14T11:41:57.496Z,32.35
2018-12-14T11:44:26.881Z,33.90
2018-12-14T11:46:57.019Z,37.25
2018-12-14T11:49:25.512Z,41.73
2018-12-14T11:51:54.083Z,38.00
2018-12-14T11:54:23.085Z,35.60
2018-12-14T11:56:51.576Z,32.80
2018-12-14T11:59:20.227Z,39.87
2018-12-14T12:01:48.726Z,34.83
2018-12-14T12:04:18.856Z,40.12
2018-12-14T12:06:48.690Z,38.98
2018-12-14T12:09:18.404Z,39.18
2018-12-14T12:11:46.897Z,36.07
2018-12-14T12:14:17.902Z,39.33
2018-12-14T12:16:46.616Z,37.50
2018-12-14T12:22:53.058Z,37.33
2018-12-14T12:25:21.629Z,31.10
2018-12-14T12:27:50.104Z,30.47
2018-12-14T12:30:18.632Z,36.70
2018-12-14T12:32:48.215Z,37.53
2018-12-14T12:35:17.714Z,39.04
2018-12-14T12:37:46.290Z,32.63
2018-12-14T12:45:17.773Z,35.80
2018-12-14T12:47:47.325Z,30.87
2018-12-14T12:55:16.729Z,29.07
2018-12-14T12:57:45.360Z,29.07
2018-12-14T13:05:15.461Z,31.37
2018-12-14T13:07:44.452Z,31.93
2018-12-14T13:10:12.952Z,28.57
2018-12-14T13:12:41.464Z,36.35
2018-12-14T13:15:10.722Z,28.33
2018-12-14T13:17:39.482Z,27.53
2018-12-14T13:20:08.138Z,28.33
2018-12-14T13:22:38.186Z,32.77
2018-12-14T13:25:06.682Z,37.30
2018-12-14T13:27:36.202Z,34.90
2018-12-14T13:30:06.037Z,31.13
2018-12-14T13:32:35.501Z,32.20
2018-12-14T13:35:04.307Z,32.23
2018-12-14T13:37:33.241Z,33.53
2018-12-14T13:40:01.846Z,36.80
2018-12-14T13:42:30.398Z,31.37
2018-12-14T13:44:59.329Z,30.33
2018-12-14T13:47:28.800Z,29.90
2018-12-14T13:49:58.658Z,32.63
2018-12-14T13:52:27.278Z,35.70
2018-12-14T13:54:55.805Z,32.27
2018-12-14T13:57:24.393Z,38.57
2018-12-14T13:59:53.016Z,32.40
2018-12-14T14:02:21.897Z,35.60
2018-12-14T14:04:50.387Z,38.20
2018-12-14T14:07:18.889Z,34.40
2018-12-14T14:09:48.094Z,36.00
2018-12-14T14:12:18.120Z,33.32
2018-12-14T14:14:52.888Z,31.90
2018-12-14T14:17:17.942Z,31.97
2018-12-14T14:19:47.080Z,36.73
2018-12-14T14:22:17.728Z,32.95
2018-12-14T14:24:46.647Z,65.77
2018-12-14T14:32:17.756Z,39.53
2018-12-14T14:34:46.237Z,36.97
2018-12-14T14:37:17.356Z,40.03
2018-12-14T14:39:46.273Z,36.97
2018-12-14T14:42:17.663Z,42.93
2018-12-14T14:44:46.194Z,36.47
2018-12-14T14:52:16.477Z,32.13
2018-12-14T14:54:44.960Z,32.30
2018-12-14T14:57:13.439Z,35.38
2018-12-14T14:59:41.956Z,31.53
2018-12-14T15:02:10.494Z,34.05
2018-12-14T15:04:39.550Z,37.80
2018-12-14T15:07:08.083Z,42.20
2018-12-14T15:09:37.492Z,38.63
2018-12-14T15:12:06.089Z,40.47
2018-12-14T15:14:35.172Z,36.08
2018-12-14T15:17:03.895Z,38.17
2018-12-14T15:19:32.407Z,35.05
2018-12-14T15:22:04.562Z,35.23
2018-12-14T15:24:32.131Z,38.08
2018-12-14T15:27:01.212Z,35.20
2018-12-14T15:29:29.711Z,39.00
2018-12-14T15:31:59.604Z,37.83
2018-12-14T15:34:28.093Z,32.50
2018-12-14T15:36:57.262Z,38.43
2018-12-14T15:39:25.736Z,33.13
2018-12-14T15:41:54.240Z,35.73
2018-12-14T15:44:25.540Z,35.57
2018-12-14T15:46:54.174Z,39.10
2018-12-14T15:49:22.828Z,39.43
2018-12-14T15:51:51.421Z,40.05
2018-12-14T15:54:22.128Z,50.37
2018-12-14T15:56:52.606Z,39.30
2018-12-14T15:59:21.726Z,43.05
2018-12-14T16:01:50.312Z,37.33
2018-12-14T16:04:18.996Z,36.17
2018-12-14T16:06:48.257Z,37.15
2018-12-14T16:09:19.617Z,39.30
2018-12-14T16:11:48.272Z,38.03
2018-12-14T16:14:17.638Z,41.30
2018-12-14T16:16:46.209Z,39.77
2018-12-14T16:29:07.823Z,37.10
2018-12-14T16:31:36.508Z,35.63
2018-12-14T16:34:05.145Z,37.90
2018-12-14T16:36:34.142Z,41.18
2018-12-14T16:39:02.802Z,43.73
2018-12-14T16:41:32.317Z,35.05
2018-12-14T16:44:00.830Z,41.50
2018-12-14T16:46:29.341Z,38.35
2018-12-14T16:48:58.361Z,35.43
2018-12-14T16:51:27.208Z,41.13
2018-12-14T16:54:03.179Z,35.00
2018-12-14T16:56:32.575Z,49.53
2018-12-14T16:59:01.223Z,37.17
2018-12-14T17:01:30.220Z,38.23
2018-12-14T17:03:59.224Z,42.37
2018-12-14T17:06:28.335Z,44.97
2018-12-14T17:08:56.821Z,47.03
2018-12-14T17:11:25.844Z,40.47
2018-12-14T17:13:55.166Z,42.10
2018-12-14T17:16:23.760Z,37.33
2018-12-14T17:18:52.276Z,36.20
2018-12-14T17:21:20.920Z,34.08
2018-12-14T17:23:49.635Z,39.80
2018-12-14T17:26:18.717Z,29.50
2018-12-14T17:28:47.212Z,33.10
2018-12-14T17:36:18.280Z,36.90
2018-12-14T17:38:47.500Z,36.93
2018-12-14T17:41:17.533Z,37.53
2018-12-14T17:43:47.190Z,32.27
2018-12-14T17:46:18.231Z,36.58
2018-12-14T17:48:46.740Z,30.33
2018-12-14T17:51:18.141Z,31.65
2018-12-14T17:53:46.692Z,35.57
2018-12-14T18:01:17.225Z,33.50
2018-12-14T18:03:45.916Z,32.10
2018-12-14T18:13:03.306Z,35.57
2018-12-14T18:15:31.830Z,36.23
2018-12-14T18:18:00.324Z,34.93
2018-12-14T18:20:29.789Z,35.80
2018-12-14T18:22:59.100Z,39.50
2018-12-14T18:25:27.717Z,39.10
2018-12-14T18:27:56.678Z,39.37
2018-12-14T18:30:25.231Z,40.10
2018-12-14T18:32:53.764Z,42.40
2018-12-14T18:35:22.341Z,38.30
2018-12-14T18:37:53.332Z,38.13
2018-12-14T18:40:22.545Z,43.40
2018-12-14T18:42:51.325Z,35.83
2018-12-14T18:45:20.368Z,39.87
2018-12-14T18:47:49.482Z,38.67
2018-12-14T18:50:18.918Z,36.50
2018-12-14T18:52:47.432Z,39.80
2018-12-14T18:55:17.685Z,39.65
2018-12-14T18:57:46.739Z,44.13
2018-12-14T19:00:17.573Z,37.20
2018-12-14T19:02:46.849Z,34.23
2018-12-14T19:10:15.759Z,39.47
2018-12-14T19:12:44.651Z,40.17
2018-12-14T19:15:13.378Z,38.63
2018-12-14T19:17:42.169Z,38.37
2018-12-14T19:20:10.697Z,47.33
2018-12-14T19:22:39.902Z,33.20
2018-12-14T19:25:08.609Z,40.27
2018-12-14T19:27:37.368Z,37.57
2018-12-14T19:35:07.494Z,36.83
2018-12-14T19:37:36.212Z,32.83
2018-12-14T19:40:06.171Z,41.43
2018-12-14T19:42:34.820Z,36.20
2018-12-14T19:45:03.983Z,36.30
2018-12-14T19:47:32.890Z,37.53
2018-12-14T19:50:01.720Z,32.95
2018-12-14T19:52:32.121Z,37.85
2018-12-14T19:55:01.863Z,36.13
2018-12-14T19:57:31.042Z,37.63
2018-12-14T19:59:59.597Z,43.30
2018-12-14T20:02:28.673Z,37.95
2018-12-14T20:04:58.391Z,36.77
2018-12-14T20:07:27.804Z,36.45
2018-12-14T20:09:56.699Z,43.07
2018-12-14T20:12:25.508Z,38.07
2018-12-14T20:14:54.001Z,39.17
2018-12-14T20:17:22.672Z,37.30
2018-12-14T20:19:52.075Z,37.73
2018-12-14T20:22:21.009Z,35.43
2018-12-14T20:24:49.776Z,36.30
2018-12-14T20:27:19.006Z,31.40
2018-12-14T20:29:47.589Z,38.02
2018-12-14T20:32:20.132Z,43.73
2018-12-14T20:34:48.687Z,33.20
2018-12-14T20:37:17.469Z,33.87
2018-12-14T20:39:45.945Z,35.10
2018-12-14T20:45:39.203Z,36.60
2018-12-14T20:48:08.077Z,42.17
2018-12-14T20:50:37.237Z,32.23
2018-12-14T20:53:06.491Z,35.53
2018-12-14T20:55:35.218Z,32.30
2018-12-14T20:58:03.976Z,38.20
2018-12-14T21:00:32.625Z,35.60
2018-12-14T21:03:02.368Z,36.10
2018-12-14T21:05:31.796Z,36.70
2018-12-14T21:08:00.544Z,32.38
2018-12-14T21:10:29.445Z,34.07
2018-12-14T21:12:59.194Z,34.47
2018-12-14T21:15:30.826Z,36.55
2018-12-14T21:17:59.484Z,36.80
2018-12-14T21:20:28.505Z,35.88
2018-12-14T21:22:57.252Z,34.73
2018-12-14T21:25:26.126Z,37.23
2018-12-14T21:27:55.997Z,39.00
2018-12-14T21:30:24.751Z,36.00
2018-12-14T21:32:53.264Z,39.07
2018-12-14T21:35:22.646Z,37.20
2018-12-14T21:37:51.653Z,38.13
2018-12-14T21:40:20.900Z,42.17
2018-12-14T21:42:51.112Z,44.33
2018-12-14T21:45:19.806Z,41.35
2018-12-14T21:47:48.322Z,38.00
2018-12-14T21:50:18.530Z,35.85
2018-12-14T21:52:47.910Z,43.37
2018-12-14T21:55:17.810Z,45.78
2018-12-14T21:57:46.752Z,41.88
2018-12-14T22:10:11.031Z,34.73
2018-12-14T22:12:40.129Z,38.60
2018-12-14T22:15:09.413Z,42.30
2018-12-14T22:17:38.353Z,34.90
2018-12-14T22:20:07.136Z,34.27
2018-12-14T22:22:36.156Z,37.83
2018-12-14T22:25:05.531Z,38.47
2018-12-14T22:29:54.894Z,36.07
2018-12-14T22:32:23.880Z,38.80
2018-12-14T22:34:52.770Z,41.75
2018-12-14T22:37:21.376Z,37.63
2018-12-14T22:39:50.216Z,33.07
2018-12-14T22:42:20.005Z,36.00
2018-12-14T22:44:48.532Z,36.60
2018-12-14T22:47:17.452Z,38.50
2018-12-14T22:49:45.965Z,40.83
2018-12-14T22:57:15.735Z,38.63
2018-12-14T22:59:44.643Z,33.63
2018-12-14T23:02:13.805Z,37.57
2018-12-14T23:04:42.512Z,39.43
2018-12-14T23:07:11.323Z,39.67
2018-12-14T23:09:40.694Z,41.03
2018-12-14T23:12:10.441Z,38.93
2018-12-14T23:14:39.043Z,37.67
2018-12-14T23:17:08.657Z,40.70
2018-12-14T23:19:38.362Z,35.57
2018-12-14T23:22:06.914Z,35.57
2018-12-14T23:24:36.256Z,34.85
2018-12-14T23:27:04.972Z,39.80
2018-12-14T23:29:33.644Z,35.78
2018-12-14T23:32:02.353Z,35.67
2018-12-14T23:34:31.156Z,35.60
2018-12-14T23:36:59.805Z,36.57
2018-12-14T23:39:28.289Z,35.17
2018-12-14T23:41:57.338Z,40.90
2018-12-14T23:44:26.846Z,37.90
2018-12-14T23:46:58.781Z,37.73
2018-12-14T23:49:26.924Z,36.20
2018-12-14T23:51:55.705Z,37.87
2018-12-14T23:54:24.893Z,41.00
2018-12-14T23:56:55.143Z,40.98
2018-12-14T23:59:23.648Z,33.07
